Time;durP1;ratioP1;P1;durP2;ratioP2;P2;SDS_P1;SDS_P2;PMS_P1;PMS_P2;Temp;Humidity;BMP_temperature;BMP_pressure;BME280_temperature;BME280_humidity;BME280_pressure;Samples;Min_cycle;Max_cycle;Signal;HPM_P1;HPM_P2
2021/01/18 00:01:17;;;;;;;158.80;69.00;;;-3.00;98.00;;;;;;4936816;29;20064;-72
2021/01/18 00:03:43;;;;;;;175.73;80.07;;;-3.20;98.40;;;;;;4936693;29;20520;-72
2021/01/18 00:06:16;;;;;;;164.52;82.65;;;-3.30;98.70;;;;;;4935194;29;20122;-71
2021/01/18 00:08:44;;;;;;;155.85;79.50;;;-3.40;98.80;;;;;;4920094;29;20480;-70
2021/01/18 00:11:11;;;;;;;145.50;74.53;;;-3.40;99.10;;;;;;4919156;29;20027;-71
2021/01/18 00:13:37;;;;;;;171.57;81.40;;;-3.40;99.30;;;;;;4919421;29;20034;-71
2021/01/18 00:16:03;;;;;;;146.15;70.53;;;-3.40;99.00;;;;;;4919343;29;20028;-71
2021/01/18 00:18:30;;;;;;;141.77;73.57;;;-3.60;99.10;;;;;;4935886;29;20031;-71
2021/01/18 00:20:56;;;;;;;124.88;65.85;;;-3.70;99.30;;;;;;4936308;29;20135;-71
2021/01/18 00:23:21;;;;;;;129.27;66.88;;;-3.70;99.20;;;;;;4939554;29;20048;-73
2021/01/18 00:25:47;;;;;;;124.18;62.13;;;-3.70;99.20;;;;;;4939902;29;20034;-70
2021/01/18 00:28:13;;;;;;;109.65;57.30;;;-3.70;99.20;;;;;;4939329;29;20035;-71
2021/01/18 00:30:39;;;;;;;97.63;52.15;;;-3.80;98.90;;;;;;4923197;29;20541;-71
2021/01/18 00:33:05;;;;;;;109.47;56.53;;;-3.80;99.10;;;;;;4922859;29;20139;-71
2021/01/18 00:35:31;;;;;;;175.30;83.22;;;-3.70;99.10;;;;;;4938885;29;20119;-72
2021/01/18 00:37:58;;;;;;;209.05;100.57;;;-3.60;98.70;;;;;;4923063;29;20028;-71
2021/01/18 00:40:25;;;;;;;215.55;101.43;;;-3.50;98.70;;;;;;4922640;29;20083;-70
2021/01/18 00:42:51;;;;;;;155.18;77.32;;;-3.50;98.90;;;;;;4939764;29;20476;-70
2021/01/18 00:45:20;;;;;;;122.18;63.17;;;-3.50;98.90;;;;;;4922899;29;20126;-71
2021/01/18 00:47:48;;;;;;;96.15;51.65;;;-3.40;98.90;;;;;;4922510;29;20044;-72
2021/01/18 00:50:15;;;;;;;118.50;60.83;;;-3.30;98.90;;;;;;4938597;29;20080;-70
2021/01/18 00:52:43;;;;;;;141.05;70.22;;;-3.30;98.40;;;;;;4922739;29;20107;-71
2021/01/18 00:55:13;;;;;;;154.77;73.05;;;-3.30;98.70;;;;;;4922430;29;20023;-72
2021/01/18 00:57:39;;;;;;;289.55;107.82;;;-3.20;99.00;;;;;;4939548;29;20472;-72
2021/01/18 01:00:10;;;;;;;460.40;150.57;;;-3.20;98.70;;;;;;4922311;29;20079;-72
2021/01/18 01:02:40;;;;;;;297.67;102.85;;;-3.10;98.50;;;;;;4922919;29;20536;-72
2021/01/18 01:05:07;;;;;;;391.15;131.32;;;-3.20;98.30;;;;;;4939735;29;20024;-72
2021/01/18 01:07:40;;;;;;;270.23;92.88;;;-3.50;98.40;;;;;;4937913;29;20035;-72
2021/01/18 01:10:07;;;;;;;300.10;104.13;;;-3.60;98.70;;;;;;4939538;29;20036;-71
2021/01/18 01:12:33;;;;;;;181.77;75.90;;;-3.70;98.80;;;;;;4939126;29;20058;-72
2021/01/18 01:14:59;;;;;;;182.25;87.05;;;-3.70;98.70;;;;;;4939449;29;20066;-71
2021/01/18 01:17:25;;;;;;;112.05;58.78;;;-3.80;98.60;;;;;;4922184;29;20027;-72
2021/01/18 01:19:51;;;;;;;122.53;61.58;;;-3.80;98.70;;;;;;4922223;29;20027;-72
2021/01/18 01:22:16;;;;;;;103.72;52.05;;;-3.90;98.70;;;;;;4939023;29;20048;-71
2021/01/18 01:24:42;;;;;;;109.68;54.22;;;-3.80;98.70;;;;;;4939550;29;20032;-72
2021/01/18 01:27:08;;;;;;;131.75;64.13;;;-3.90;98.60;;;;;;4922133;29;20035;-71
2021/01/18 01:29:33;;;;;;;216.20;97.07;;;-4.00;98.90;;;;;;4939201;29;20032;-72
2021/01/18 01:31:59;;;;;;;321.73;124.00;;;-4.00;98.80;;;;;;4922159;29;20464;-71
2021/01/18 01:34:25;;;;;;;262.98;105.80;;;-4.00;99.20;;;;;;4921860;29;20038;-72
2021/01/18 01:36:52;;;;;;;242.02;101.60;;;-3.80;98.80;;;;;;4921940;29;20028;-72
2021/01/18 01:39:17;;;;;;;222.73;90.55;;;-3.80;98.50;;;;;;4922007;29;20024;-71
2021/01/18 01:41:43;;;;;;;188.77;82.15;;;-3.80;98.90;;;;;;4921800;29;20027;-72
2021/01/18 01:44:09;;;;;;;156.00;72.65;;;-3.90;98.60;;;;;;4921558;29;20068;-71
2021/01/18 01:46:35;;;;;;;149.25;67.47;;;-3.80;98.50;;;;;;4939164;29;20039;-72
2021/01/18 01:49:01;;;;;;;298.00;121.03;;;-3.80;98.10;;;;;;4921734;29;20043;-71
2021/01/18 01:51:29;;;;;;;216.35;98.07;;;-4.00;98.40;;;;;;4921483;29;20031;-72
2021/01/18 01:53:56;;;;;;;200.93;93.15;;;-3.90;98.40;;;;;;4937496;29;20028;-72
2021/01/18 01:56:22;;;;;;;172.90;82.63;;;-3.90;98.40;;;;;;4921381;29;20036;-72
2021/01/18 01:58:52;;;;;;;186.25;90.38;;;-3.80;98.30;;;;;;4921555;29;20038;-72
2021/01/18 02:01:19;;;;;;;281.42;148.15;;;-3.80;97.60;;;;;;4921524;29;20119;-72
2021/01/18 02:03:45;;;;;;;343.08;140.68;;;-4.00;98.20;;;;;;4938149;29;20032;-72
2021/01/18 02:06:11;;;;;;;256.17;118.13;;;-4.00;98.60;;;;;;4921348;29;20036;-71
2021/01/18 02:08:38;;;;;;;244.98;118.95;;;-4.10;98.70;;;;;;4921175;29;20039;-71
2021/01/18 02:11:05;;;;;;;194.52;95.75;;;-4.10;98.90;;;;;;4921091;29;20121;-72
2021/01/18 02:14:08;;;;;;;266.67;117.38;;;-4.10;98.90;;;;;;4938076;29;20031;-72
2021/01/18 02:16:43;;;;;;;228.07;90.38;;;-4.10;99.30;;;;;;4937320;29;20499;-72
2021/01/18 02:19:21;;;;;;;;;;;-4.20;99.90;;;;;;4937352;29;20038;-72
2021/01/18 02:22:15;;;;;;;226.75;84.50;;;-4.20;99.90;;;;;;4937917;29;20015;-73
2021/01/18 02:25:21;;;;;;;248.25;91.95;;;-4.10;99.90;;;;;;4920919;29;20542;-74
2021/01/18 02:27:57;;;;;;;205.40;67.00;;;-3.80;99.90;;;;;;4938312;29;20046;-73
2021/01/18 02:30:38;;;;;;;198.43;71.20;;;-3.90;99.90;;;;;;4938193;29;20031;-73
2021/01/18 02:33:34;;;;;;;362.02;122.90;;;-4.00;99.90;;;;;;4937813;29;20031;-74
2021/01/18 02:36:38;;;;;;;223.13;77.30;;;-4.20;99.90;;;;;;4936888;29;20053;-71
2021/01/18 02:39:10;;;;;;;279.60;91.45;;;-4.10;99.90;;;;;;4904305;29;20036;-71
2021/01/18 02:41:48;;;;;;;354.63;98.63;;;-4.20;99.90;;;;;;4920803;29;20111;-71
2021/01/18 02:44:18;;;;;;;325.95;78.32;;;-4.40;99.90;;;;;;4920138;29;20032;-72
2021/01/18 02:46:47;;;;;;;399.00;122.07;;;-4.40;99.90;;;;;;4936190;29;20038;-72
2021/01/18 02:49:15;;;;;;;309.55;79.93;;;-4.40;99.90;;;;;;4937786;29;20488;-72
2021/01/18 02:51:46;;;;;;;279.65;82.53;;;-4.30;99.90;;;;;;4920608;29;20027;-71
2021/01/18 02:54:11;;;;;;;292.95;82.88;;;-4.10;99.90;;;;;;4920387;29;20031;-71
2021/01/18 02:56:40;;;;;;;255.00;63.00;;;-4.10;99.90;;;;;;4935998;29;20144;-72
2021/01/18 02:59:11;;;;;;;285.23;80.93;;;-4.20;99.90;;;;;;4920204;29;20028;-70
2021/01/18 03:01:55;;;;;;;205.18;52.20;;;-4.10;99.90;;;;;;4921410;29;20349;-71
2021/01/18 03:04:59;;;;;;;212.75;50.75;;;-4.10;99.90;;;;;;4938096;29;20027;-72
2021/01/18 03:07:31;;;;;;;251.40;78.22;;;-4.20;99.90;;;;;;4891758;29;20047;-70
2021/01/18 03:10:06;;;;;;;215.75;80.43;;;-4.00;99.90;;;;;;4936997;29;20353;-72
2021/01/18 03:12:41;;;;;;;224.68;81.07;;;-3.90;99.90;;;;;;4920230;29;20031;-71
2021/01/18 03:15:13;;;;;;;165.82;57.38;;;-3.80;99.90;;;;;;4936883;29;20032;-72
2021/01/18 03:17:43;;;;;;;235.18;73.97;;;-3.90;99.90;;;;;;4920231;29;20035;-71
2021/01/18 03:20:09;;;;;;;241.40;85.30;;;-3.90;99.90;;;;;;4919776;29;20038;-73
2021/01/18 03:22:36;;;;;;;225.60;71.47;;;-3.70;99.90;;;;;;4937578;29;20062;-72
2021/01/18 03:25:09;;;;;;;133.23;55.08;;;-3.90;99.90;;;;;;4920271;29;20023;-74
2021/01/18 03:27:53;;;;;;;127.22;49.03;;;-3.80;99.90;;;;;;4937507;29;20032;-72
2021/01/18 03:30:21;;;;;;;131.52;49.22;;;-3.80;99.90;;;;;;4936931;29;20110;-73
2021/01/18 03:32:51;;;;;;;114.75;46.40;;;-3.80;99.90;;;;;;4937007;29;20510;-74
2021/01/18 03:35:17;;;;;;;199.32;71.00;;;-3.70;99.90;;;;;;4936403;29;20042;-71
2021/01/18 03:37:44;;;;;;;162.05;60.50;;;-3.80;99.90;;;;;;4919853;29;20027;-73
2021/01/18 03:40:10;;;;;;;135.00;56.45;;;-3.70;99.90;;;;;;4919767;29;20031;-72
2021/01/18 03:42:36;;;;;;;108.13;44.90;;;-3.70;99.90;;;;;;4935301;29;20032;-71
2021/01/18 03:45:02;;;;;;;160.43;61.65;;;-3.80;99.40;;;;;;4936821;29;20035;-73
2021/01/18 03:47:28;;;;;;;143.63;56.15;;;-3.90;99.90;;;;;;4936652;29;20038;-73
2021/01/18 03:49:53;;;;;;;366.83;114.07;;;-4.00;99.90;;;;;;4936704;29;20524;-73
2021/01/18 03:52:19;;;;;;;137.52;42.45;;;-4.00;99.40;;;;;;4919653;29;20494;-73
2021/01/18 03:54:45;;;;;;;117.35;39.00;;;-4.30;99.40;;;;;;4937500;29;20031;-72
2021/01/18 03:57:10;;;;;;;110.05;40.53;;;-4.50;99.70;;;;;;4935524;29;20460;-72
2021/01/18 03:59:36;;;;;;;104.60;40.35;;;-4.50;99.90;;;;;;4936628;29;20031;-73
2021/01/18 04:02:02;;;;;;;96.53;39.00;;;-4.50;99.90;;;;;;4919276;29;20027;-72
2021/01/18 04:04:28;;;;;;;104.40;40.53;;;-4.50;99.80;;;;;;4935284;29;20059;-73
2021/01/18 04:06:53;;;;;;;195.75;57.78;;;-4.60;99.90;;;;;;4919469;29;20174;-72
2021/01/18 04:09:19;;;;;;;87.25;38.35;;;-4.50;99.90;;;;;;4936022;29;20036;-73
2021/01/18 04:11:45;;;;;;;155.32;53.08;;;-4.60;99.60;;;;;;4936528;29;20036;-74
2021/01/18 04:14:10;;;;;;;117.03;47.83;;;-4.50;99.80;;;;;;4936503;29;20034;-74
2021/01/18 04:16:40;;;;;;;121.78;49.55;;;-4.50;99.80;;;;;;4919117;29;20547;-72
2021/01/18 04:19:06;;;;;;;187.68;67.68;;;-4.50;99.50;;;;;;4919382;29;20051;-73
2021/01/18 04:21:36;;;;;;;164.95;66.38;;;-4.70;99.60;;;;;;4936756;29;20138;-72
2021/01/18 04:24:02;;;;;;;193.55;52.80;;;-4.80;99.70;;;;;;4919040;29;20032;-72
2021/01/18 04:26:27;;;;;;;167.20;45.33;;;-4.80;99.50;;;;;;4919288;29;20032;-72
2021/01/18 04:28:53;;;;;;;165.90;43.05;;;-5.00;99.80;;;;;;4936376;29;20141;-72
2021/01/18 04:31:19;;;;;;;101.80;40.38;;;-4.90;99.80;;;;;;4919014;29;20038;-71
2021/01/18 04:33:44;;;;;;;203.80;56.92;;;-4.90;99.80;;;;;;4919338;29;20469;-73
2021/01/18 04:36:10;;;;;;;231.90;74.47;;;-5.00;99.80;;;;;;4936554;29;20039;-71
2021/01/18 04:38:36;;;;;;;143.68;53.05;;;-5.20;99.90;;;;;;4918998;29;20036;-71
2021/01/18 04:41:07;;;;;;;186.75;67.53;;;-5.00;99.90;;;;;;4919302;29;20428;-70
2021/01/18 04:43:33;;;;;;;138.95;58.08;;;-5.00;99.90;;;;;;4919192;29;20080;-74
2021/01/18 04:45:59;;;;;;;143.45;60.25;;;-4.80;99.90;;;;;;4934611;29;20036;-71
2021/01/18 04:48:25;;;;;;;278.92;84.55;;;-4.80;99.90;;;;;;4919263;29;20388;-70
2021/01/18 04:50:52;;;;;;;166.60;63.97;;;-4.90;99.60;;;;;;4919179;29;20432;-72
2021/01/18 04:53:23;;;;;;;206.43;78.68;;;-4.70;99.90;;;;;;4918794;29;20079;-71
2021/01/18 04:56:04;;;;;;;206.75;55.38;;;-4.70;99.30;;;;;;4919457;29;20078;-72
2021/01/18 04:58:30;;;;;;;160.93;54.67;;;-5.00;99.50;;;;;;4934668;29;20119;-71
2021/01/18 05:01:02;;;;;;;195.70;57.03;;;-5.00;99.90;;;;;;4918654;29;20066;-73
2021/01/18 05:03:35;;;;;;;267.50;59.85;;;-5.10;99.80;;;;;;4919033;29;20027;-70
2021/01/18 05:06:13;;;;;;;184.88;58.72;;;-5.20;99.90;;;;;;4918715;29;20024;-71
2021/01/18 05:09:03;;;;;;;189.80;62.55;;;-5.00;99.90;;;;;;4936505;29;20035;-70
2021/01/18 05:11:28;;;;;;;238.45;72.85;;;-5.00;99.90;;;;;;4939459;29;20027;-72
2021/01/18 05:14:01;;;;;;;176.25;61.15;;;-4.90;99.90;;;;;;4940542;29;20027;-70
2021/01/18 05:16:33;;;;;;;252.32;77.75;;;-4.90;99.60;;;;;;4923300;29;20035;-72
2021/01/18 05:19:09;;;;;;;181.88;63.53;;;-4.90;99.40;;;;;;4939752;29;20118;-71
2021/01/18 05:21:42;;;;;;;155.10;59.85;;;-4.80;99.50;;;;;;4922398;29;20047;-72
2021/01/18 05:24:08;;;;;;;167.13;69.03;;;-4.80;99.60;;;;;;4922361;29;20420;-72
2021/01/18 05:26:35;;;;;;;212.45;83.75;;;-4.80;99.10;;;;;;4937670;29;20027;-73
2021/01/18 05:29:00;;;;;;;140.32;60.97;;;-4.80;99.70;;;;;;4922144;29;20036;-73
2021/01/18 05:31:26;;;;;;;129.95;55.90;;;-4.70;99.40;;;;;;4922041;29;20030;-70
2021/01/18 05:34:05;;;;;;;265.50;109.40;;;-4.60;99.30;;;;;;4938613;29;20032;-72
2021/01/18 05:36:42;;;;;;;143.60;62.45;;;-4.60;98.70;;;;;;4922098;29;20464;-72
2021/01/18 05:39:30;;;;;;;114.28;50.38;;;-4.60;98.90;;;;;;4922229;29;20468;-70
2021/01/18 05:41:56;;;;;;;142.10;63.95;;;-4.50;98.60;;;;;;4937496;29;20461;-72
2021/01/18 05:44:36;;;;;;;189.50;86.25;;;-4.60;98.10;;;;;;4921868;29;20086;-72
2021/01/18 05:47:06;;;;;;;149.25;68.78;;;-4.60;97.80;;;;;;4938578;29;20035;-71
2021/01/18 05:49:49;;;;;;;222.68;109.30;;;-4.70;97.70;;;;;;4938880;29;20523;-72
2021/01/18 05:52:32;;;;;;;187.07;89.35;;;-4.80;97.60;;;;;;4921865;29;20030;-72
2021/01/18 05:55:15;;;;;;;249.38;115.28;;;-4.80;97.40;;;;;;4921416;29;20130;-72
2021/01/18 05:57:49;;;;;;;160.75;74.40;;;-5.00;97.90;;;;;;4937171;29;20059;-70
2021/01/18 06:00:35;;;;;;;150.45;74.65;;;-5.00;97.70;;;;;;4937733;29;20134;-71
2021/01/18 06:03:11;;;;;;;132.35;66.13;;;-4.90;97.30;;;;;;4921356;29;20023;-72
2021/01/18 06:05:39;;;;;;;158.55;73.72;;;-5.00;97.40;;;;;;4922596;29;20166;-72
2021/01/18 06:08:12;;;;;;;149.98;73.43;;;-4.90;97.60;;;;;;4922424;29;20067;-71
2021/01/18 06:10:38;;;;;;;162.85;79.75;;;-5.00;97.20;;;;;;4937274;29;20035;-72
2021/01/18 06:13:16;;;;;;;161.18;80.15;;;-4.90;96.90;;;;;;4948874;29;20027;-72
2021/01/18 06:15:42;;;;;;;165.85;78.32;;;-4.90;96.60;;;;;;4956099;29;20032;-72
2021/01/18 06:18:13;;;;;;;174.07;84.78;;;-5.00;96.60;;;;;;4956451;29;20037;-72
2021/01/18 06:20:39;;;;;;;264.52;118.30;;;-5.00;96.70;;;;;;4955303;28;20046;-72
2021/01/18 06:23:05;;;;;;;224.68;106.13;;;-5.10;97.10;;;;;;4956915;29;20019;-73
2021/01/18 06:25:38;;;;;;;194.88;88.10;;;-5.00;97.10;;;;;;4956125;29;20027;-73
2021/01/18 06:28:30;;;;;;;190.43;91.20;;;-5.10;96.60;;;;;;4956393;29;20053;-72
2021/01/18 06:31:00;;;;;;;214.05;102.53;;;-5.00;96.60;;;;;;4955862;29;20031;-73
2021/01/18 06:33:40;;;;;;;205.98;98.28;;;-5.10;96.40;;;;;;4957185;29;20467;-72
2021/01/18 06:36:22;;;;;;;220.20;105.55;;;-5.00;96.50;;;;;;4955601;29;20490;-72
2021/01/18 06:39:00;;;;;;;221.77;105.22;;;-5.00;96.30;;;;;;4956399;29;20444;-73
2021/01/18 06:41:37;;;;;;;198.23;90.28;;;-4.90;96.20;;;;;;4955909;29;20067;-73
2021/01/18 06:44:05;;;;;;;170.38;84.40;;;-5.10;95.50;;;;;;4955574;29;20027;-73
2021/01/18 06:46:30;;;;;;;199.63;99.90;;;-5.10;96.20;;;;;;4939892;29;20395;-72
2021/01/18 06:48:57;;;;;;;211.55;100.28;;;-5.00;95.90;;;;;;4956951;29;20046;-74
2021/01/18 06:51:25;;;;;;;183.00;84.72;;;-4.90;96.50;;;;;;4956905;29;20060;-73
2021/01/18 06:53:52;;;;;;;163.13;84.25;;;-4.80;96.10;;;;;;4939609;29;20027;-72
2021/01/18 06:56:41;;;;;;;183.25;92.43;;;-4.90;95.40;;;;;;4956597;29;20105;-73
2021/01/18 06:59:34;;;;;;;185.23;90.57;;;-4.70;96.90;;;;;;4911412;29;20048;-72
2021/01/18 07:02:20;;;;;;;160.13;79.93;;;-4.60;95.30;;;;;;4936043;29;20035;-74
2021/01/18 07:04:47;;;;;;;180.45;91.53;;;-4.70;95.30;;;;;;4935545;29;20473;-73
2021/01/18 07:07:24;;;;;;;233.82;111.78;;;-4.70;96.00;;;;;;4937122;29;20107;-72
2021/01/18 07:10:10;;;;;;;158.13;82.07;;;-4.60;95.80;;;;;;4936611;29;20111;-71
2021/01/18 07:12:36;;;;;;;141.80;73.22;;;-4.70;95.40;;;;;;4935495;29;20043;-73
2021/01/18 07:15:08;;;;;;;128.35;68.40;;;-4.70;95.60;;;;;;4937034;29;20531;-72
2021/01/18 07:17:42;;;;;;;122.95;64.28;;;-4.60;96.30;;;;;;4937529;29;20027;-74
2021/01/18 07:20:15;;;;;;;123.53;65.20;;;-4.50;96.70;;;;;;4936996;29;20027;-73
2021/01/18 07:23:07;;;;;;;357.77;146.25;;;-4.40;95.80;;;;;;4937674;29;20047;-73
2021/01/18 07:25:41;;;;;;;150.52;78.53;;;-4.50;95.30;;;;;;4919844;29;20461;-73
2021/01/18 07:28:09;;;;;;;303.90;147.73;;;-4.70;95.20;;;;;;4935852;29;20067;-74
2021/01/18 07:30:38;;;;;;;312.55;142.45;;;-4.80;95.10;;;;;;4936819;29;20036;-73
2021/01/18 07:33:13;;;;;;;220.20;110.20;;;-4.70;95.80;;;;;;4919653;29;20114;-73
2021/01/18 07:35:39;;;;;;;;;;;-4.80;96.10;;;;;;4937184;29;20539;-74
2021/01/18 07:38:24;;;;;;;155.68;75.38;;;-4.60;96.10;;;;;;4937209;29;19907;-75
2021/01/18 07:41:12;;;;;;;214.30;90.15;;;-4.40;95.90;;;;;;4918548;29;20476;-74
2021/01/18 07:43:43;;;;;;;122.78;57.35;;;-4.30;95.60;;;;;;4919552;29;20052;-74
2021/01/18 07:46:35;;;;;;;118.78;56.85;;;-4.40;94.50;;;;;;4919035;29;20456;-73
2021/01/18 07:49:13;;;;;;;136.68;63.80;;;-4.10;95.70;;;;;;4930344;29;20078;-73
2021/01/18 07:51:39;;;;;;;107.10;55.13;;;-3.90;95.70;;;;;;4934320;29;20491;-73
2021/01/18 07:54:05;;;;;;;122.68;65.53;;;-3.70;95.30;;;;;;4936191;29;20028;-73
2021/01/18 07:56:32;;;;;;;99.70;50.83;;;-3.60;95.50;;;;;;4936360;29;20058;-73
2021/01/18 07:59:04;;;;;;;113.55;56.28;;;-3.50;95.00;;;;;;4921977;29;20067;-74
2021/01/18 08:01:33;;;;;;;120.95;59.92;;;-3.40;94.80;;;;;;4921738;29;20484;-72
2021/01/18 08:04:18;;;;;;;120.28;61.78;;;-3.40;95.10;;;;;;4900633;29;20038;-73
2021/01/18 08:07:06;;;;;;;115.93;59.30;;;-3.30;95.00;;;;;;4942863;29;20032;-73
2021/01/18 08:09:37;;;;;;;134.20;67.32;;;-3.40;94.80;;;;;;4945307;29;20052;-72
2021/01/18 08:12:34;;;;;;;134.77;67.35;;;-3.40;94.70;;;;;;4927379;29;20028;-71
2021/01/18 08:15:08;;;;;;;143.88;68.18;;;-3.30;94.70;;;;;;4934831;29;20032;-73
2021/01/18 08:17:34;;;;;;;132.15;68.68;;;-3.10;94.80;;;;;;4919403;29;20028;-73
2021/01/18 08:20:07;;;;;;;133.95;68.13;;;-3.00;94.60;;;;;;4936706;29;20032;-73
2021/01/18 08:22:34;;;;;;;189.07;89.78;;;-3.10;94.10;;;;;;4934796;29;20099;-72
2021/01/18 08:25:01;;;;;;;192.88;88.85;;;-3.00;94.50;;;;;;4936793;29;20038;-72
2021/01/18 08:27:47;;;;;;;154.25;77.93;;;-2.90;94.10;;;;;;4955460;29;20032;-73
2021/01/18 08:30:34;;;;;;;183.00;86.65;;;-3.10;93.80;;;;;;4954041;29;20031;-72
2021/01/18 08:33:05;;;;;;;205.50;97.63;;;-3.00;95.00;;;;;;4953999;29;20027;-71
2021/01/18 08:35:42;;;;;;;200.73;96.78;;;-3.00;94.30;;;;;;4954002;29;20034;-72
2021/01/18 08:38:19;;;;;;;272.65;118.05;;;-2.70;94.40;;;;;;4938470;29;20468;-71
2021/01/18 08:40:48;;;;;;;279.10;111.07;;;-2.60;94.60;;;;;;4954010;29;20039;-73
2021/01/18 08:43:16;;;;;;;169.23;79.95;;;-2.60;93.60;;;;;;4956274;28;20062;-71
2021/01/18 08:45:50;;;;;;;372.08;127.78;;;-2.40;94.00;;;;;;4957963;29;20039;-71
2021/01/18 08:48:21;;;;;;;321.55;123.10;;;-2.70;93.40;;;;;;4959194;29;20034;-73
2021/01/18 08:50:53;;;;;;;178.85;75.13;;;-2.80;93.80;;;;;;4958661;29;20044;-71
2021/01/18 08:53:32;;;;;;;273.83;102.65;;;-2.60;93.30;;;;;;4958033;29;20419;-73
2021/01/18 08:56:00;;;;;;;165.80;83.60;;;-2.30;94.20;;;;;;4958802;29;20405;-72
2021/01/18 08:58:44;;;;;;;170.18;84.25;;;-2.20;93.60;;;;;;4958956;29;20050;-72
2021/01/18 09:01:26;;;;;;;172.00;80.23;;;-2.00;92.30;;;;;;4958609;29;20038;-73
2021/01/18 09:04:05;;;;;;;127.65;69.18;;;-1.70;92.80;;;;;;4957470;29;20266;-73
2021/01/18 09:06:31;;;;;;;115.38;60.13;;;-1.20;93.20;;;;;;4957569;29;20098;-73
2021/01/18 09:09:08;;;;;;;153.77;74.20;;;-0.80;92.50;;;;;;4957527;29;20035;-72
2021/01/18 09:11:34;;;;;;;222.18;94.50;;;0.00;92.90;;;;;;4957134;29;20047;-73
2021/01/18 09:14:01;;;;;;;129.35;65.63;;;0.30;90.40;;;;;;4958631;29;20027;-72
2021/01/18 09:16:26;;;;;;;132.07;64.40;;;0.40;90.90;;;;;;4957418;29;20077;-73
2021/01/18 09:18:52;;;;;;;133.23;62.83;;;-0.30;86.80;;;;;;4957036;29;20055;-72
2021/01/18 09:21:19;;;;;;;129.73;68.93;;;-0.80;88.90;;;;;;4957465;28;20043;-70
2021/01/18 09:23:45;;;;;;;119.97;62.20;;;-0.80;90.10;;;;;;4958523;29;20031;-71
2021/01/18 09:26:13;;;;;;;115.30;58.45;;;-0.50;91.70;;;;;;4957857;29;20419;-71
2021/01/18 09:28:51;;;;;;;137.02;68.22;;;-0.70;90.90;;;;;;4957817;29;20074;-72
2021/01/18 09:31:18;;;;;;;162.50;66.88;;;-0.90;90.90;;;;;;4957865;29;20546;-71
2021/01/18 09:33:44;;;;;;;135.77;57.55;;;-1.30;90.70;;;;;;4957295;29;20050;-72
2021/01/18 09:36:15;;;;;;;145.27;61.67;;;-1.10;91.80;;;;;;4958295;29;20475;-73
2021/01/18 09:38:42;;;;;;;201.20;80.55;;;-1.20;91.00;;;;;;4956505;29;20375;-72
2021/01/18 09:41:08;;;;;;;221.60;89.88;;;-1.40;91.30;;;;;;4956542;29;20082;-71
2021/01/18 09:43:34;;;;;;;178.13;80.93;;;-1.30;92.40;;;;;;4956828;29;20034;-72
2021/01/18 09:46:01;;;;;;;158.77;87.43;;;-1.10;92.20;;;;;;4956558;29;20031;-73
2021/01/18 09:48:28;;;;;;;118.20;62.90;;;-1.10;92.30;;;;;;4957357;29;20035;-72
2021/01/18 09:51:05;;;;;;;122.70;63.10;;;-1.00;92.40;;;;;;4956680;29;20444;-71
2021/01/18 09:53:32;;;;;;;118.22;61.60;;;-0.90;92.20;;;;;;4957774;28;20110;-71
2021/01/18 09:56:09;;;;;;;115.05;59.10;;;-0.90;91.80;;;;;;4958440;29;20116;-71
2021/01/18 09:59:06;;;;;;;101.30;54.53;;;-0.60;92.30;;;;;;4956733;29;20031;-71
2021/01/18 10:01:35;;;;;;;76.85;43.05;;;-0.70;91.40;;;;;;4956451;29;20027;-71
2021/01/18 10:04:05;;;;;;;100.53;53.97;;;-0.90;91.20;;;;;;4940568;29;20067;-71
2021/01/18 10:06:33;;;;;;;91.05;50.55;;;-0.80;91.60;;;;;;4956100;29;20028;-72
2021/01/18 10:09:08;;;;;;;101.43;59.40;;;-0.60;91.70;;;;;;4957695;29;20042;-71
2021/01/18 10:11:49;;;;;;;87.55;50.03;;;-0.20;92.40;;;;;;4957745;29;20031;-73
2021/01/18 10:14:22;;;;;;;86.85;48.20;;;-0.30;91.40;;;;;;4946674;29;20028;-71
2021/01/18 10:17:01;;;;;;;95.57;50.10;;;-0.40;90.50;;;;;;4921534;29;20392;-71
2021/01/18 10:19:27;;;;;;;121.43;60.42;;;-0.20;91.00;;;;;;4938424;29;20059;-71
2021/01/18 10:21:54;;;;;;;385.50;162.75;;;-0.50;90.10;;;;;;4938110;29;20060;-71
2021/01/18 10:24:29;;;;;;;112.32;55.45;;;-0.40;90.50;;;;;;4921725;29;20395;-72
2021/01/18 10:27:07;;;;;;;92.07;46.60;;;-0.90;90.70;;;;;;4920894;29;20087;-72
2021/01/18 10:29:33;;;;;;;92.30;53.35;;;-0.50;91.60;;;;;;4921059;29;20488;-72
2021/01/18 10:32:00;;;;;;;84.05;47.15;;;-0.50;91.10;;;;;;4938369;29;20416;-72
2021/01/18 10:34:28;;;;;;;88.45;50.78;;;-0.60;91.20;;;;;;4935702;29;20066;-71
2021/01/18 10:37:17;;;;;;;67.97;39.45;;;-0.50;91.60;;;;;;4939993;29;20035;-72
2021/01/18 10:39:49;;;;;;;92.05;50.08;;;-0.70;90.60;;;;;;4956902;29;20499;-71
2021/01/18 10:42:20;;;;;;;102.35;60.45;;;-0.60;91.10;;;;;;4957003;29;20132;-71
2021/01/18 10:44:51;;;;;;;104.20;54.17;;;-0.50;91.60;;;;;;4956968;29;20044;-71
2021/01/18 10:47:25;;;;;;;102.97;56.38;;;-0.40;90.60;;;;;;4956838;29;20531;-71
2021/01/18 10:49:57;;;;;;;154.65;88.15;;;-0.50;91.00;;;;;;4956733;29;20035;-71
2021/01/18 10:52:32;;;;;;;275.70;153.68;;;-0.40;91.50;;;;;;4956522;29;20036;-72
2021/01/18 10:54:59;;;;;;;170.18;89.38;;;-0.40;91.10;;;;;;4955453;29;20031;-71
2021/01/18 10:57:26;;;;;;;281.83;129.45;;;-0.10;91.40;;;;;;4941623;29;20503;-70
2021/01/18 11:00:13;;;;;;;186.55;93.55;;;0.10;90.90;;;;;;4937261;29;20036;-70
2021/01/18 11:02:41;;;;;;;261.42;129.20;;;0.20;90.20;;;;;;4936742;29;20436;-71
2021/01/18 11:05:08;;;;;;;290.00;131.60;;;0.00;90.20;;;;;;4937439;29;20387;-71
2021/01/18 11:07:36;;;;;;;444.38;192.05;;;0.10;89.60;;;;;;4920865;29;20031;-71
2021/01/18 11:10:03;;;;;;;234.63;96.05;;;0.10;90.40;;;;;;4920374;29;20039;-72
2021/01/18 11:12:33;;;;;;;230.10;102.10;;;0.40;90.50;;;;;;4937450;29;20099;-72
2021/01/18 11:15:03;;;;;;;244.63;113.13;;;0.10;88.40;;;;;;4937267;29;20034;-71
2021/01/18 11:17:30;;;;;;;118.82;59.95;;;0.10;89.60;;;;;;4936840;29;20036;-70
2021/01/18 11:19:56;;;;;;;122.05;58.92;;;0.00;90.40;;;;;;4920049;29;20067;-71
2021/01/18 11:22:22;;;;;;;117.45;59.42;;;0.20;90.70;;;;;;4937101;29;20059;-71
2021/01/18 11:24:48;;;;;;;137.15;70.22;;;0.10;88.90;;;;;;4936836;29;20031;-71
2021/01/18 11:27:14;;;;;;;73.55;39.65;;;0.20;89.40;;;;;;4937005;29;20114;-72
2021/01/18 11:29:40;;;;;;;128.32;60.58;;;0.10;87.50;;;;;;4919885;29;20039;-72
2021/01/18 11:32:06;;;;;;;89.53;44.65;;;0.20;89.30;;;;;;4936757;29;20035;-71
2021/01/18 11:34:33;;;;;;;92.13;46.45;;;0.10;88.80;;;;;;4936897;29;20437;-71
2021/01/18 11:37:06;;;;;;;99.10;50.40;;;0.00;88.80;;;;;;4936583;29;20039;-71
2021/01/18 11:39:32;;;;;;;82.78;42.63;;;0.00;87.20;;;;;;4936882;29;20024;-71
2021/01/18 11:42:06;;;;;;;113.10;52.65;;;0.00;89.10;;;;;;4936567;29;20445;-71
2021/01/18 11:44:32;;;;;;;110.63;50.38;;;0.10;89.70;;;;;;4936963;29;20024;-71
2021/01/18 11:46:59;;;;;;;98.50;44.95;;;0.10;90.30;;;;;;4919703;29;20059;-72
2021/01/18 11:49:26;;;;;;;91.82;44.47;;;0.10;87.90;;;;;;4919722;29;20067;-71
2021/01/18 11:51:54;;;;;;;149.18;66.50;;;0.10;87.90;;;;;;4919376;29;20035;-72
2021/01/18 11:54:23;;;;;;;128.95;64.03;;;0.00;85.50;;;;;;4936744;29;20024;-72
2021/01/18 11:56:49;;;;;;;119.40;56.20;;;0.20;89.00;;;;;;4919521;29;20036;-71
2021/01/18 11:59:15;;;;;;;93.47;45.33;;;0.10;85.90;;;;;;4935984;29;20034;-72
2021/01/18 12:01:41;;;;;;;76.95;40.35;;;0.20;88.60;;;;;;4919639;29;20095;-72
2021/01/18 12:04:07;;;;;;;71.18;37.65;;;0.20;86.20;;;;;;4936696;29;20078;-71
2021/01/18 12:06:34;;;;;;;68.72;35.25;;;0.20;88.10;;;;;;4936215;29;20066;-72
2021/01/18 12:09:00;;;;;;;72.00;37.85;;;0.20;87.70;;;;;;4936632;29;20091;-71
2021/01/18 12:11:26;;;;;;;67.20;34.63;;;0.30;87.10;;;;;;4936297;29;20027;-72
2021/01/18 12:13:52;;;;;;;72.68;36.03;;;0.20;85.30;;;;;;4936330;29;20058;-71
2021/01/18 12:16:27;;;;;;;73.55;38.70;;;0.30;86.30;;;;;;4936409;29;20055;-71
2021/01/18 12:18:53;;;;;;;56.95;31.77;;;0.60;86.50;;;;;;4938888;29;20028;-71
2021/01/18 12:21:20;;;;;;;58.15;31.88;;;0.70;84.60;;;;;;4940138;29;20066;-72
2021/01/18 12:23:49;;;;;;;58.22;32.90;;;0.80;83.60;;;;;;4940375;29;20055;-71
2021/01/18 12:26:18;;;;;;;70.88;39.17;;;0.80;84.10;;;;;;4922794;29;20028;-70
2021/01/18 12:28:46;;;;;;;88.20;43.72;;;0.60;81.50;;;;;;4923278;29;20432;-72
2021/01/18 12:31:12;;;;;;;70.20;38.00;;;0.60;81.10;;;;;;4940058;29;20028;-72
2021/01/18 12:33:38;;;;;;;112.25;51.42;;;0.80;86.70;;;;;;4922855;29;20384;-71
2021/01/18 12:36:04;;;;;;;107.68;49.83;;;0.70;81.10;;;;;;4939982;29;20031;-72
2021/01/18 12:38:29;;;;;;;85.00;42.53;;;0.60;81.00;;;;;;4923090;29;20027;-71